sensor_id;sensor_type;location;lat;lon;timestamp;pressure;altitude;pressure_sealevel;temperature;humidity
13013;BME280;22580;57.670;12.006;2023-03-23T00:01:09;99521.00;;;15.92;80.99
13013;BME280;22580;57.670;12.006;2023-03-23T00:03:40;99583.94;;;16.16;81.45
13013;BME280;22580;57.670;12.006;2023-03-23T00:06:18;99565.72;;;16.18;80.86
13013;BME280;22580;57.670;12.006;2023-03-23T00:08:48;99564.63;;;15.96;81.50
13013;BME280;22580;57.670;12.006;2023-03-23T00:11:18;99570.09;;;16.27;80.68
13013;BME280;22580;57.670;12.006;2023-03-23T00:13:49;99510.59;;;15.73;81.05
13013;BME280;22580;57.670;12.006;2023-03-23T00:16:18;99561.84;;;16.20;80.88
13013;BME280;22580;57.670;12.006;2023-03-23T00:18:50;99521.69;;;15.86;81.00
13013;BME280;22580;57.670;12.006;2023-03-23T00:21:31;99569.44;;;16.17;81.16
13013;BME280;22580;57.670;12.006;2023-03-23T00:24:08;99559.00;;;16.14;81.24
13013;BME280;22580;57.670;12.006;2023-03-23T00:26:37;99569.50;;;16.00;81.33
13013;BME280;22580;57.670;12.006;2023-03-23T00:29:07;99558.19;;;16.05;81.39
13013;BME280;22580;57.670;12.006;2023-03-23T00:31:36;99534.44;;;16.09;80.73
13013;BME280;22580;57.670;12.006;2023-03-23T00:34:08;99563.91;;;16.49;79.89
13013;BME280;22580;57.670;12.006;2023-03-23T00:36:37;99537.66;;;15.96;80.87
13013;BME280;22580;57.670;12.006;2023-03-23T00:39:08;99561.03;;;16.12;81.70
13013;BME280;22580;57.670;12.006;2023-03-23T00:41:37;99553.38;;;16.31;80.75
13013;BME280;22580;57.670;12.006;2023-03-23T00:44:07;99543.63;;;16.30;80.74
13013;BME280;22580;57.670;12.006;2023-03-23T00:46:40;99526.94;;;16.27;80.44
13013;BME280;22580;57.670;12.006;2023-03-23T00:49:20;99515.78;;;15.91;81.21
13013;BME280;22580;57.670;12.006;2023-03-23T00:54:37;99558.22;;;16.44;81.11
13013;BME280;22580;57.670;12.006;2023-03-23T00:57:06;99464.47;;;15.76;81.40
13013;BME280;22580;57.670;12.006;2023-03-23T00:59:39;99547.59;;;16.43;81.04
13013;BME280;22580;57.670;12.006;2023-03-23T01:02:09;99558.81;;;16.23;82.27
13013;BME280;22580;57.670;12.006;2023-03-23T01:04:39;99533.44;;;16.01;82.67
13013;BME280;22580;57.670;12.006;2023-03-23T01:07:10;99446.84;;;15.49;83.01
13013;BME280;22580;57.670;12.006;2023-03-23T01:09:39;99551.47;;;16.01;83.55
13013;BME280;22580;57.670;12.006;2023-03-23T01:12:10;99521.75;;;15.62;84.52
13013;BME280;22580;57.670;12.006;2023-03-23T01:14:47;99487.09;;;15.34;85.20
13013;BME280;22580;57.670;12.006;2023-03-23T01:17:20;99496.47;;;15.63;84.66
13013;BME280;22580;57.670;12.006;2023-03-23T01:19:50;99519.06;;;15.21;86.49
13013;BME280;22580;57.670;12.006;2023-03-23T01:22:27;99455.16;;;15.15;85.38
13013;BME280;22580;57.670;12.006;2023-03-23T01:24:59;99544.97;;;15.71;85.79
13013;BME280;22580;57.670;12.006;2023-03-23T01:27:28;99456.50;;;15.19;85.21
13013;BME280;22580;57.670;12.006;2023-03-23T01:29:55;99503.09;;;15.12;86.77
13013;BME280;22580;57.670;12.006;2023-03-23T01:32:22;99540.59;;;15.13;87.98
13013;BME280;22580;57.670;12.006;2023-03-23T01:34:58;99540.78;;;15.44;87.44
13013;BME280;22580;57.670;12.006;2023-03-23T01:37:27;99371.28;;;14.47;86.70
13013;BME280;22580;57.670;12.006;2023-03-23T01:39:57;99530.97;;;15.76;85.51
13013;BME280;22580;57.670;12.006;2023-03-23T01:42:31;99542.94;;;15.73;85.55
13013;BME280;22580;57.670;12.006;2023-03-23T01:45:31;99531.22;;;16.05;84.10
13013;BME280;22580;57.670;12.006;2023-03-23T01:48:11;99536.31;;;16.00;83.89
13013;BME280;22580;57.670;12.006;2023-03-23T01:50:52;99532.59;;;16.01;83.64
13013;BME280;22580;57.670;12.006;2023-03-23T01:53:32;99429.22;;;15.38;83.73
13013;BME280;22580;57.670;12.006;2023-03-23T01:56:09;99525.81;;;16.13;83.15
13013;BME280;22580;57.670;12.006;2023-03-23T01:58:57;99523.16;;;16.05;83.25
13013;BME280;22580;57.670;12.006;2023-03-23T02:01:25;99457.47;;;15.51;82.84
13013;BME280;22580;57.670;12.006;2023-03-23T02:03:54;99521.78;;;16.09;82.15
13013;BME280;22580;57.670;12.006;2023-03-23T02:06:38;99515.50;;;15.61;84.13
13013;BME280;22580;57.670;12.006;2023-03-23T02:09:05;99514.25;;;15.96;82.50
13013;BME280;22580;57.670;12.006;2023-03-23T02:11:37;99507.66;;;16.07;82.36
13013;BME280;22580;57.670;12.006;2023-03-23T02:14:07;99512.38;;;16.05;82.40
13013;BME280;22580;57.670;12.006;2023-03-23T02:16:50;99427.84;;;15.51;82.66
13013;BME280;22580;57.670;12.006;2023-03-23T02:19:39;99497.81;;;15.75;83.22
13013;BME280;22580;57.670;12.006;2023-03-23T02:22:39;99472.97;;;15.96;83.21
13013;BME280;22580;57.670;12.006;2023-03-23T02:25:29;99463.78;;;15.82;83.38
13013;BME280;22580;57.670;12.006;2023-03-23T02:28:36;99489.56;;;15.68;84.38
13013;BME280;22580;57.670;12.006;2023-03-23T02:34:29;99484.13;;;15.85;84.53
13013;BME280;22580;57.670;12.006;2023-03-23T02:37:10;99468.84;;;15.77;84.81
13013;BME280;22580;57.670;12.006;2023-03-23T02:40:07;99398.09;;;15.28;84.51
13013;BME280;22580;57.670;12.006;2023-03-23T02:42:40;99464.19;;;16.02;84.11
13013;BME280;22580;57.670;12.006;2023-03-23T02:45:29;99456.16;;;15.94;84.49
13013;BME280;22580;57.670;12.006;2023-03-23T02:48:08;99372.72;;;15.69;84.19
13013;BME280;22580;57.670;12.006;2023-03-23T02:50:49;99447.25;;;16.24;83.67
13013;BME280;22580;57.670;12.006;2023-03-23T02:53:28;99371.06;;;15.99;83.49
13013;BME280;22580;57.670;12.006;2023-03-23T02:55:57;99444.56;;;16.47;82.92
13013;BME280;22580;57.670;12.006;2023-03-23T02:58:28;99427.72;;;16.22;83.56
13013;BME280;22580;57.670;12.006;2023-03-23T03:00:58;99421.03;;;16.10;83.96
13013;BME280;22580;57.670;12.006;2023-03-23T03:03:30;99405.03;;;16.09;83.67
13013;BME280;22580;57.670;12.006;2023-03-23T03:06:18;99371.41;;;15.96;83.98
13013;BME280;22580;57.670;12.006;2023-03-23T03:09:07;99429.59;;;16.45;82.61
13013;BME280;22580;57.670;12.006;2023-03-23T03:12:08;99388.59;;;15.95;83.49
13013;BME280;22580;57.670;12.006;2023-03-23T03:14:40;99355.28;;;15.88;83.29
13013;BME280;22580;57.670;12.006;2023-03-23T03:17:27;99399.69;;;16.31;83.02
13013;BME280;22580;57.670;12.006;2023-03-23T03:20:02;99329.44;;;15.71;83.86
13013;BME280;22580;57.670;12.006;2023-03-23T03:22:39;99385.66;;;15.74;84.99
13013;BME280;22580;57.670;12.006;2023-03-23T03:25:16;99324.97;;;15.55;84.50
13013;BME280;22580;57.670;12.006;2023-03-23T03:27:49;99308.59;;;15.65;84.01
13013;BME280;22580;57.670;12.006;2023-03-23T03:30:20;99378.22;;;16.15;83.43
13013;BME280;22580;57.670;12.006;2023-03-23T03:33:09;99389.25;;;16.28;83.19
13013;BME280;22580;57.670;12.006;2023-03-23T03:36:02;99403.38;;;16.53;82.57
13013;BME280;22580;57.670;12.006;2023-03-23T03:38:50;99402.75;;;16.28;83.56
13013;BME280;22580;57.670;12.006;2023-03-23T03:41:18;99333.50;;;15.98;83.18
13013;BME280;22580;57.670;12.006;2023-03-23T03:43:47;99401.00;;;16.35;83.79
13013;BME280;22580;57.670;12.006;2023-03-23T03:46:19;99403.41;;;16.30;84.36
13013;BME280;22580;57.670;12.006;2023-03-23T03:48:48;99381.00;;;15.99;84.55
13013;BME280;22580;57.670;12.006;2023-03-23T03:51:17;99389.06;;;16.30;83.77
13013;BME280;22580;57.670;12.006;2023-03-23T03:53:48;99327.28;;;15.97;83.19
13013;BME280;22580;57.670;12.006;2023-03-23T03:56:17;99404.84;;;16.41;83.25
13013;BME280;22580;57.670;12.006;2023-03-23T03:58:46;99378.47;;;16.28;83.11
13013;BME280;22580;57.670;12.006;2023-03-23T04:01:18;99381.88;;;16.22;83.15
13013;BME280;22580;57.670;12.006;2023-03-23T04:03:47;99407.75;;;16.54;82.83
13013;BME280;22580;57.670;12.006;2023-03-23T04:06:20;99382.47;;;16.32;83.05
13013;BME280;22580;57.670;12.006;2023-03-23T04:08:48;99399.19;;;16.51;83.33
13013;BME280;22580;57.670;12.006;2023-03-23T04:11:17;99389.22;;;16.51;82.97
13013;BME280;22580;57.670;12.006;2023-03-23T04:13:47;99332.28;;;16.31;82.24
13013;BME280;22580;57.670;12.006;2023-03-23T04:16:15;99383.47;;;16.54;82.71
13013;BME280;22580;57.670;12.006;2023-03-23T04:18:49;99378.91;;;16.55;82.90
13013;BME280;22580;57.670;12.006;2023-03-23T04:21:16;99330.72;;;15.83;83.66
13013;BME280;22580;57.670;12.006;2023-03-23T04:23:48;99367.56;;;16.22;83.81
13013;BME280;22580;57.670;12.006;2023-03-23T04:26:17;99388.78;;;16.25;84.26
13013;BME280;22580;57.670;12.006;2023-03-23T04:28:50;99341.19;;;16.09;83.89
13013;BME280;22580;57.670;12.006;2023-03-23T04:31:17;99364.44;;;16.10;84.79
13013;BME280;22580;57.670;12.006;2023-03-23T04:33:47;99360.50;;;16.21;83.97
13013;BME280;22580;57.670;12.006;2023-03-23T04:36:18;99323.34;;;16.08;83.86
13013;BME280;22580;57.670;12.006;2023-03-23T04:38:51;99304.81;;;16.05;83.81
13013;BME280;22580;57.670;12.006;2023-03-23T04:41:31;99357.53;;;16.08;85.07
13013;BME280;22580;57.670;12.006;2023-03-23T04:44:07;99359.94;;;16.48;83.73
13013;BME280;22580;57.670;12.006;2023-03-23T04:46:40;99361.06;;;16.54;82.96
13013;BME280;22580;57.670;12.006;2023-03-23T04:49:07;99346.69;;;16.16;83.65
13013;BME280;22580;57.670;12.006;2023-03-23T04:51:37;99293.25;;;15.96;83.59
13013;BME280;22580;57.670;12.006;2023-03-23T04:54:06;99334.25;;;16.37;83.05
13013;BME280;22580;57.670;12.006;2023-03-23T04:56:38;99357.34;;;16.55;82.47
13013;BME280;22580;57.670;12.006;2023-03-23T04:59:09;99326.88;;;16.09;83.43
13013;BME280;22580;57.670;12.006;2023-03-23T05:01:40;99344.84;;;16.16;83.68
13013;BME280;22580;57.670;12.006;2023-03-23T05:04:14;99194.34;;;15.28;82.98
13013;BME280;22580;57.670;12.006;2023-03-23T05:06:58;99277.31;;;15.87;83.17
13013;BME280;22580;57.670;12.006;2023-03-23T05:09:29;99352.22;;;16.22;83.45
13013;BME280;22580;57.670;12.006;2023-03-23T05:12:08;99357.56;;;15.68;85.83
13013;BME280;22580;57.670;12.006;2023-03-23T05:14:40;99316.84;;;15.63;85.82
13013;BME280;22580;57.670;12.006;2023-03-23T05:17:19;99340.25;;;16.25;84.07
13013;BME280;22580;57.670;12.006;2023-03-23T05:19:49;99320.53;;;16.24;83.56
13013;BME280;22580;57.670;12.006;2023-03-23T05:22:19;99319.69;;;16.01;83.91
13013;BME280;22580;57.670;12.006;2023-03-23T05:24:59;99231.44;;;15.72;83.26
13013;BME280;22580;57.670;12.006;2023-03-23T05:27:40;99335.47;;;16.50;82.66
13013;BME280;22580;57.670;12.006;2023-03-23T05:30:18;99336.78;;;16.54;82.47
13013;BME280;22580;57.670;12.006;2023-03-23T05:32:47;99338.75;;;16.45;82.79
13013;BME280;22580;57.670;12.006;2023-03-23T05:35:19;99339.09;;;16.65;81.98
13013;BME280;22580;57.670;12.006;2023-03-23T05:37:49;99298.53;;;15.90;83.47
13013;BME280;22580;57.670;12.006;2023-03-23T05:40:21;99321.72;;;15.99;83.71
13013;BME280;22580;57.670;12.006;2023-03-23T05:42:57;99329.28;;;16.26;83.45
13013;BME280;22580;57.670;12.006;2023-03-23T05:45:26;99220.38;;;15.05;84.55
13013;BME280;22580;57.670;12.006;2023-03-23T05:47:53;99293.09;;;15.67;84.70
13013;BME280;22580;57.670;12.006;2023-03-23T05:50:28;99313.88;;;15.58;85.91
13013;BME280;22580;57.670;12.006;2023-03-23T05:52:56;99146.31;;;14.78;84.99
13013;BME280;22580;57.670;12.006;2023-03-23T05:55:28;99314.69;;;15.90;85.21
13013;BME280;22580;57.670;12.006;2023-03-23T05:57:58;99315.34;;;15.92;84.89
13013;BME280;22580;57.670;12.006;2023-03-23T06:00:27;99322.31;;;16.32;83.97
13013;BME280;22580;57.670;12.006;2023-03-23T06:02:58;99325.69;;;16.49;83.00
13013;BME280;22580;57.670;12.006;2023-03-23T06:05:28;99245.28;;;15.92;83.37
13013;BME280;22580;57.670;12.006;2023-03-23T06:07:57;99275.81;;;15.84;84.21
13013;BME280;22580;57.670;12.006;2023-03-23T06:10:30;99323.09;;;16.18;83.97
13013;BME280;22580;57.670;12.006;2023-03-23T06:13:07;99334.00;;;16.24;84.11
13013;BME280;22580;57.670;12.006;2023-03-23T06:15:39;99338.44;;;16.17;84.61
13013;BME280;22580;57.670;12.006;2023-03-23T06:18:08;99299.38;;;16.36;83.26
13013;BME280;22580;57.670;12.006;2023-03-23T06:20:37;99126.09;;;15.21;83.58
13013;BME280;22580;57.670;12.006;2023-03-23T06:23:08;99321.25;;;16.56;83.51
13013;BME280;22580;57.670;12.006;2023-03-23T06:25:39;99291.00;;;16.31;83.34
13013;BME280;22580;57.670;12.006;2023-03-23T06:28:08;99314.13;;;16.25;84.02
13013;BME280;22580;57.670;12.006;2023-03-23T06:30:38;99312.78;;;16.21;84.58
13013;BME280;22580;57.670;12.006;2023-03-23T06:33:07;99297.59;;;16.66;83.28
13013;BME280;22580;57.670;12.006;2023-03-23T06:35:35;99293.63;;;16.54;82.90
13013;BME280;22580;57.670;12.006;2023-03-23T06:38:02;99295.56;;;16.83;82.29
13013;BME280;22580;57.670;12.006;2023-03-23T06:40:32;99278.25;;;16.77;82.11
13013;BME280;22580;57.670;12.006;2023-03-23T06:43:00;99256.88;;;16.53;82.58
13013;BME280;22580;57.670;12.006;2023-03-23T06:45:29;99263.22;;;16.60;82.19
13013;BME280;22580;57.670;12.006;2023-03-23T06:47:58;99243.88;;;16.56;82.18
13013;BME280;22580;57.670;12.006;2023-03-23T06:50:27;99221.63;;;16.54;81.35
13013;BME280;22580;57.670;12.006;2023-03-23T06:52:59;99289.91;;;16.92;81.61
13013;BME280;22580;57.670;12.006;2023-03-23T06:55:28;99284.69;;;16.76;81.71
13013;BME280;22580;57.670;12.006;2023-03-23T06:58:09;99284.59;;;16.99;81.63
13013;BME280;22580;57.670;12.006;2023-03-23T07:00:38;99262.59;;;16.20;83.17
13013;BME280;22580;57.670;12.006;2023-03-23T07:03:06;99294.09;;;16.80;82.77
13013;BME280;22580;57.670;12.006;2023-03-23T07:05:37;99291.22;;;16.96;82.46
13013;BME280;22580;57.670;12.006;2023-03-23T07:08:04;99229.72;;;16.54;82.67
13013;BME280;22580;57.670;12.006;2023-03-23T07:10:37;99286.94;;;16.87;83.15
13013;BME280;22580;57.670;12.006;2023-03-23T07:13:08;99262.09;;;16.92;82.61
13013;BME280;22580;57.670;12.006;2023-03-23T07:15:35;99259.28;;;16.85;83.27
13013;BME280;22580;57.670;12.006;2023-03-23T07:18:10;99243.75;;;16.87;83.33
13013;BME280;22580;57.670;12.006;2023-03-23T07:20:37;99226.91;;;16.70;83.91
13013;BME280;22580;57.670;12.006;2023-03-23T07:23:10;99251.19;;;17.15;83.03
13013;BME280;22580;57.670;12.006;2023-03-23T07:25:57;99227.19;;;16.76;84.25
13013;BME280;22580;57.670;12.006;2023-03-23T07:28:27;99156.94;;;16.69;83.66
13013;BME280;22580;57.670;12.006;2023-03-23T07:30:57;99244.66;;;17.24;83.13
13013;BME280;22580;57.670;12.006;2023-03-23T07:33:30;99131.63;;;16.41;84.30
13013;BME280;22580;57.670;12.006;2023-03-23T07:36:09;99173.59;;;16.87;83.67
13013;BME280;22580;57.670;12.006;2023-03-23T07:38:36;99218.88;;;17.21;83.52
13013;BME280;22580;57.670;12.006;2023-03-23T07:41:09;99232.47;;;17.49;83.09
13013;BME280;22580;57.670;12.006;2023-03-23T07:43:37;99229.31;;;17.46;83.51
13013;BME280;22580;57.670;12.006;2023-03-23T07:46:04;99222.16;;;17.38;83.54
13013;BME280;22580;57.670;12.006;2023-03-23T07:48:37;99143.41;;;16.98;83.67
13013;BME280;22580;57.670;12.006;2023-03-23T07:51:07;99205.91;;;17.31;83.93
13013;BME280;22580;57.670;12.006;2023-03-23T07:53:34;99234.00;;;17.37;84.73
13013;BME280;22580;57.670;12.006;2023-03-23T07:56:01;99233.63;;;17.40;84.51
13013;BME280;22580;57.670;12.006;2023-03-23T07:58:32;99222.31;;;17.30;84.92
13013;BME280;22580;57.670;12.006;2023-03-23T08:01:19;99203.88;;;17.19;85.25
13013;BME280;22580;57.670;12.006;2023-03-23T08:03:47;99196.19;;;17.37;84.60
13013;BME280;22580;57.670;12.006;2023-03-23T08:06:17;99195.97;;;17.53;84.22
13013;BME280;22580;57.670;12.006;2023-03-23T08:08:50;99173.50;;;17.31;84.42
13013;BME280;22580;57.670;12.006;2023-03-23T08:11:28;99215.06;;;17.52;85.34
13013;BME280;22580;57.670;12.006;2023-03-23T08:13:55;99206.09;;;17.30;85.95
13013;BME280;22580;57.670;12.006;2023-03-23T08:16:24;99206.94;;;17.52;85.67
13013;BME280;22580;57.670;12.006;2023-03-23T08:18:59;99211.66;;;17.64;85.80
13013;BME280;22580;57.670;12.006;2023-03-23T08:21:27;99210.75;;;17.93;84.93
13013;BME280;22580;57.670;12.006;2023-03-23T08:23:57;99200.63;;;18.02;84.80
13013;BME280;22580;57.670;12.006;2023-03-23T08:26:26;99194.41;;;18.01;84.48
13013;BME280;22580;57.670;12.006;2023-03-23T08:28:53;99199.34;;;18.19;85.12
13013;BME280;22580;57.670;12.006;2023-03-23T08:31:27;99207.84;;;18.16;86.05
13013;BME280;22580;57.670;12.006;2023-03-23T08:34:00;99210.03;;;18.06;85.61
13013;BME280;22580;57.670;12.006;2023-03-23T08:36:34;99201.88;;;18.27;85.15
13013;BME280;22580;57.670;12.006;2023-03-23T08:39:09;99199.47;;;17.90;85.96
13013;BME280;22580;57.670;12.006;2023-03-23T08:41:39;99198.31;;;17.99;86.00
13013;BME280;22580;57.670;12.006;2023-03-23T08:44:07;99049.91;;;16.91;86.47
13013;BME280;22580;57.670;12.006;2023-03-23T08:46:38;99197.53;;;18.05;86.24
13013;BME280;22580;57.670;12.006;2023-03-23T08:49:05;99177.84;;;18.11;85.38
13013;BME280;22580;57.670;12.006;2023-03-23T08:51:33;99185.69;;;18.06;85.63
13013;BME280;22580;57.670;12.006;2023-03-23T08:54:01;99189.50;;;17.90;86.84
13013;BME280;22580;57.670;12.006;2023-03-23T08:56:29;99174.38;;;17.17;89.21
13013;BME280;22580;57.670;12.006;2023-03-23T08:58:56;99164.72;;;17.87;86.72
13013;BME280;22580;57.670;12.006;2023-03-23T09:01:25;99177.97;;;18.03;86.65
13013;BME280;22580;57.670;12.006;2023-03-23T09:04:09;99046.63;;;17.38;86.51
13013;BME280;22580;57.670;12.006;2023-03-23T09:06:38;99150.00;;;18.17;86.52
13013;BME280;22580;57.670;12.006;2023-03-23T09:09:07;99151.69;;;18.53;86.11
13013;BME280;22580;57.670;12.006;2023-03-23T09:11:36;99154.78;;;18.50;85.91
13013;BME280;22580;57.670;12.006;2023-03-23T09:14:07;99143.94;;;18.43;85.96
13013;BME280;22580;57.670;12.006;2023-03-23T09:16:39;99157.41;;;18.64;85.64
13013;BME280;22580;57.670;12.006;2023-03-23T09:19:11;99152.84;;;18.65;85.58
13013;BME280;22580;57.670;12.006;2023-03-23T09:21:47;99155.66;;;18.57;85.87
13013;BME280;22580;57.670;12.006;2023-03-23T09:24:14;99144.00;;;18.56;85.72
13013;BME280;22580;57.670;12.006;2023-03-23T09:26:48;99146.53;;;18.30;86.66
13013;BME280;22580;57.670;12.006;2023-03-23T09:29:21;99133.09;;;18.09;86.63
13013;BME280;22580;57.670;12.006;2023-03-23T09:32:00;99158.53;;;18.49;85.96
13013;BME280;22580;57.670;12.006;2023-03-23T09:34:31;99160.22;;;17.94;87.87
13013;BME280;22580;57.670;12.006;2023-03-23T09:37:04;99132.03;;;18.03;87.01
13013;BME280;22580;57.670;12.006;2023-03-23T09:39:31;99148.84;;;18.33;87.21
13013;BME280;22580;57.670;12.006;2023-03-23T09:42:21;99026.88;;;17.37;86.93
13013;BME280;22580;57.670;12.006;2023-03-23T09:45:20;99149.69;;;18.33;86.88
13013;BME280;22580;57.670;12.006;2023-03-23T09:48:23;99142.09;;;18.16;86.77
13013;BME280;22580;57.670;12.006;2023-03-23T09:51:02;99067.13;;;18.03;85.86
13013;BME280;22580;57.670;12.006;2023-03-23T09:53:39;99140.69;;;18.20;86.64
13013;BME280;22580;57.670;12.006;2023-03-23T09:56:17;99111.31;;;18.17;86.33
13013;BME280;22580;57.670;12.006;2023-03-23T09:58:49;99134.88;;;18.29;85.96
13013;BME280;22580;57.670;12.006;2023-03-23T10:01:32;99138.91;;;18.40;85.88
13013;BME280;22580;57.670;12.006;2023-03-23T10:04:22;98967.06;;;16.70;87.67
13013;BME280;22580;57.670;12.006;2023-03-23T10:07:11;99017.41;;;17.48;86.98
13013;BME280;22580;57.670;12.006;2023-03-23T10:10:01;99056.50;;;17.52;87.61
13013;BME280;22580;57.670;12.006;2023-03-23T10:12:38;99115.44;;;18.13;87.13
13013;BME280;22580;57.670;12.006;2023-03-23T10:15:20;99126.25;;;18.47;86.02
13013;BME280;22580;57.670;12.006;2023-03-23T10:17:58;99101.56;;;18.22;86.25
13013;BME280;22580;57.670;12.006;2023-03-23T10:20:38;99113.09;;;18.03;87.40
13013;BME280;22580;57.670;12.006;2023-03-23T10:23:40;99095.19;;;18.02;87.42
13013;BME280;22580;57.670;12.006;2023-03-23T10:26:17;99119.25;;;18.18;87.16
13013;BME280;22580;57.670;12.006;2023-03-23T10:28:50;99084.63;;;18.07;87.41
13013;BME280;22580;57.670;12.006;2023-03-23T10:31:31;99087.03;;;17.67;89.47
13013;BME280;22580;57.670;12.006;2023-03-23T10:34:10;99100.59;;;18.37;87.53
13013;BME280;22580;57.670;12.006;2023-03-23T10:37:01;99101.84;;;18.34;87.42
13013;BME280;22580;57.670;12.006;2023-03-23T10:39:50;99104.50;;;17.93;89.18
13013;BME280;22580;57.670;12.006;2023-03-23T10:42:31;99051.78;;;18.10;87.46
13013;BME280;22580;57.670;12.006;2023-03-23T10:45:20;99096.47;;;18.41;87.24
13013;BME280;22580;57.670;12.006;2023-03-23T10:48:00;99092.41;;;17.89;88.67
13013;BME280;22580;57.670;12.006;2023-03-23T10:50:50;99001.53;;;17.38;88.49
13013;BME280;22580;57.670;12.006;2023-03-23T10:53:32;99082.81;;;18.21;87.44
13013;BME280;22580;57.670;12.006;2023-03-23T10:56:22;99059.31;;;17.87;88.33
13013;BME280;22580;57.670;12.006;2023-03-23T10:59:18;99004.03;;;17.40;88.55
13013;BME280;22580;57.670;12.006;2023-03-23T11:01:50;99057.50;;;17.94;88.46
13013;BME280;22580;57.670;12.006;2023-03-23T11:04:38;99084.84;;;18.47;87.46
13013;BME280;22580;57.670;12.006;2023-03-23T11:07:18;99021.41;;;18.08;87.37
13013;BME280;22580;57.670;12.006;2023-03-23T11:10:20;99083.19;;;18.46;87.17
13013;BME280;22580;57.670;12.006;2023-03-23T11:13:01;99071.13;;;18.48;85.84
13013;BME280;22580;57.670;12.006;2023-03-23T11:15:49;99025.00;;;18.22;85.56
13013;BME280;22580;57.670;12.006;2023-03-23T11:18:20;99072.19;;;18.54;85.86
13013;BME280;22580;57.670;12.006;2023-03-23T11:20:50;98973.00;;;18.20;85.10
13013;BME280;22580;57.670;12.006;2023-03-23T11:23:21;99009.00;;;18.27;84.62
13013;BME280;22580;57.670;12.006;2023-03-23T11:26:01;99052.28;;;18.27;85.32
13013;BME280;22580;57.670;12.006;2023-03-23T11:28:41;99043.25;;;18.54;84.09
13013;BME280;22580;57.670;12.006;2023-03-23T11:31:21;99086.53;;;17.85;86.99
13013;BME280;22580;57.670;12.006;2023-03-23T11:34:18;99062.47;;;17.90;87.05
13013;BME280;22580;57.670;12.006;2023-03-23T11:36:48;99079.50;;;18.19;87.00
13013;BME280;22580;57.670;12.006;2023-03-23T11:39:21;99083.78;;;18.07;88.00
13013;BME280;22580;57.670;12.006;2023-03-23T11:41:59;99083.94;;;17.98;88.39
13013;BME280;22580;57.670;12.006;2023-03-23T11:44:41;99010.03;;;17.35;89.34
13013;BME280;22580;57.670;12.006;2023-03-23T11:47:30;98990.91;;;17.86;86.94
13013;BME280;22580;57.670;12.006;2023-03-23T11:53:20;99020.78;;;18.06;85.72
13013;BME280;22580;57.670;12.006;2023-03-23T11:56:12;99078.22;;;18.15;87.04
13013;BME280;22580;57.670;12.006;2023-03-23T11:58:50;99055.44;;;17.96;87.41
13013;BME280;22580;57.670;12.006;2023-03-23T12:01:29;99086.78;;;18.18;86.77
13013;BME280;22580;57.670;12.006;2023-03-23T12:04:23;99089.34;;;18.33;86.27
13013;BME280;22580;57.670;12.006;2023-03-23T12:07:03;99081.97;;;18.20;86.85
13013;BME280;22580;57.670;12.006;2023-03-23T12:09:58;98961.09;;;16.96;88.65
13013;BME280;22580;57.670;12.006;2023-03-23T12:12:51;99073.94;;;17.50;89.69
13013;BME280;22580;57.670;12.006;2023-03-23T12:15:50;99021.56;;;17.01;90.41
13013;BME280;22580;57.670;12.006;2023-03-23T12:18:53;99085.34;;;17.66;90.13
13013;BME280;22580;57.670;12.006;2023-03-23T12:21:33;99097.91;;;18.02;88.54
13013;BME280;22580;57.670;12.006;2023-03-23T12:24:21;99094.06;;;17.90;88.53
13013;BME280;22580;57.670;12.006;2023-03-23T12:27:01;99092.19;;;18.18;88.04
13013;BME280;22580;57.670;12.006;2023-03-23T12:29:51;99000.78;;;17.73;87.89
13013;BME280;22580;57.670;12.006;2023-03-23T12:32:51;99096.47;;;17.78;87.80
13013;BME280;22580;57.670;12.006;2023-03-23T12:35:37;99100.13;;;17.49;89.29
13013;BME280;22580;57.670;12.006;2023-03-23T12:38:16;99094.72;;;17.71;88.38
13013;BME280;22580;57.670;12.006;2023-03-23T12:41:04;99102.97;;;17.84;87.56
13013;BME280;22580;57.670;12.006;2023-03-23T12:43:38;99101.91;;;17.85;87.34
13013;BME280;22580;57.670;12.006;2023-03-23T12:49:21;99008.25;;;16.64;88.88
13013;BME280;22580;57.670;12.006;2023-03-23T12:52:13;99115.50;;;17.49;89.24
13013;BME280;22580;57.670;12.006;2023-03-23T12:55:01;99095.97;;;17.68;89.24
13013;BME280;22580;57.670;12.006;2023-03-23T13:00:33;99131.88;;;18.46;85.20
13013;BME280;22580;57.670;12.006;2023-03-23T13:03:18;99093.97;;;18.39;84.20
13013;BME280;22580;57.670;12.006;2023-03-23T13:05:52;99134.19;;;18.83;83.61
13013;BME280;22580;57.670;12.006;2023-03-23T13:08:25;99142.56;;;18.88;82.54
13013;BME280;22580;57.670;12.006;2023-03-23T13:10:58;99140.03;;;18.87;82.14
13013;BME280;22580;57.670;12.006;2023-03-23T13:13:46;99119.72;;;18.63;82.42
13013;BME280;22580;57.670;12.006;2023-03-23T13:16:27;99126.69;;;18.51;82.72
13013;BME280;22580;57.670;12.006;2023-03-23T13:19:19;99049.63;;;17.99;83.02
13013;BME280;22580;57.670;12.006;2023-03-23T13:22:11;98976.09;;;17.54;82.93
13013;BME280;22580;57.670;12.006;2023-03-23T13:25:00;99159.19;;;18.85;83.82
13013;BME280;22580;57.670;12.006;2023-03-23T13:27:40;99172.69;;;18.51;84.27
13013;BME280;22580;57.670;12.006;2023-03-23T13:30:19;99176.69;;;18.83;83.84
13013;BME280;22580;57.670;12.006;2023-03-23T13:32:51;99178.19;;;18.92;82.76
13013;BME280;22580;57.670;12.006;2023-03-23T13:35:48;99088.34;;;18.41;82.96
13013;BME280;22580;57.670;12.006;2023-03-23T13:38:23;99030.03;;;16.77;85.50
13013;BME280;22580;57.670;12.006;2023-03-23T13:41:10;99203.91;;;18.19;85.00
13013;BME280;22580;57.670;12.006;2023-03-23T13:43:48;99170.81;;;17.53;87.95
13013;BME280;22580;57.670;12.006;2023-03-23T13:46:30;99195.97;;;17.53;86.74
13013;BME280;22580;57.670;12.006;2023-03-23T13:49:20;99200.44;;;17.82;87.13
13013;BME280;22580;57.670;12.006;2023-03-23T13:52:06;99218.66;;;18.72;85.86